Campanya meteocatpedra

Dades EMA Santuari de Queralt

?
?
Resum diari
Dades diàries de l'estació meteorològica
Temperatura mitjana 7.7 °C
Temperatura màxima 12.2 °C 14:45 TU
Temperatura mínima 4.7 °C 0:21 TU
Humitat relativa mitjana 52%
Precipitació acumulada 0.0 mm
Ratxa màxima del vent (10 m) 14.8 km/h - 151º 11:50 TU
Irradiació solar global 8.7 MJ/m2

El tram horari està expressat en Temps Universal (TU). Cal sumar una hora en horari d'hivern i dues en horari d'estiu per passar a l'hora oficial.

Santuari de Queralt

Metadades estació meteorol´gica
Municipi Berga
Comarca Berguedà
Altitud 1167 m
Data alta 23.01.2002
Estat actual Operativa
Dades de període
Període
TU
TM
°C
TX
°C
TN
°C
HRM
%
PPT
mm
VVM (10 m)
km/h
DVM (10 m)
graus
VVX (10 m)
km/h
RS
W/m2
00:00 - 00:30 4.8 5.1 4.7 82 0.0 5.4 137 10.4 0
00:30 - 01:00 5.2 5.3 5.0 78 0.0 1.8 117 6.1 0
01:00 - 01:30 5.4 5.8 5.1 76 0.0 2.2 68 4.7 0
01:30 - 02:00 5.3 5.7 5.1 76 0.0 2.2 107 6.5 0
02:00 - 02:30 5.4 5.6 5.3 71 0.0 2.9 62 7.2 0
02:30 - 03:00 5.4 5.9 5.2 64 0.0 2.2 46 6.1 0
03:00 - 03:30 6.4 6.9 5.9 46 0.0 8.6 330 13.3 0
03:30 - 04:00 6.7 7.1 6.4 40 0.0 8.3 347 12.6 0
04:00 - 04:30 7.2 7.4 7.0 35 0.0 4.7 356 9.7 0
04:30 - 05:00 7.2 7.4 7.0 35 0.0 5.0 345 7.2 0
05:00 - 05:30 7.4 7.7 7.1 36 0.0 4.0 351 6.1 0
05:30 - 06:00 7.1 7.7 6.7 38 0.0 5.4 18 9.0 0
06:00 - 06:30 6.8 6.9 6.6 39 0.0 6.1 32 9.4 0
06:30 - 07:00 6.4 6.6 6.3 40 0.0 6.8 30 9.7 0
07:00 - 07:30 6.5 7.1 6.4 41 0.0 7.6 20 10.8 12
07:30 - 08:00 8.3 8.5 7.3 38 0.0 5.0 53 8.3 70
08:00 - 08:30 9.0 9.4 8.3 43 0.0 3.6 109 7.6 131
08:30 - 09:00 8.5 8.9 8.2 42 0.0 3.6 134 8.6 168
09:00 - 09:30 9.2 9.7 8.5 44 0.0 4.0 137 7.9 220
09:30 - 10:00 9.7 10.6 8.8 42 0.0 6.1 133 12.2 319
10:00 - 10:30 9.4 10.5 8.7 41 0.0 6.1 141 10.8 378
10:30 - 11:00 10.0 10.7 9.4 42 0.0 7.2 146 12.6 427
11:00 - 11:30 10.4 10.8 10.2 42 0.0 7.6 145 14.0 449
11:30 - 12:00 10.9 11.2 10.1 41 0.0 9.0 146 14.8 455
12:00 - 12:30 10.3 10.9 9.5 44 0.0 7.2 149 12.6 449
12:30 - 13:00 10.5 10.9 10.1 42 0.0 7.6 146 13.7 431
13:00 - 13:30 11.1 11.7 10.6 42 0.0 7.6 153 12.6 339
13:30 - 14:00 10.8 11.3 10.2 44 0.0 7.2 150 12.2 336
14:00 - 14:30 11.4 11.9 11.1 44 0.0 7.9 157 14.0 274
14:30 - 15:00 11.9 12.2 11.6 42 0.0 7.9 155 11.2 204
15:00 - 15:30 10.9 11.7 10.1 45 0.0 6.8 166 10.8 131
15:30 - 16:00 9.3 10.0 8.1 49 0.0 8.3 172 12.2 49
16:00 - 16:30 7.4 8.0 7.0 56 0.0 8.6 181 11.5 1
16:30 - 17:00 7.1 7.2 6.9 59 0.0 6.5 197 9.7 0
17:00 - 17:30 6.9 7.0 6.8 63 0.0 6.5 197 10.4 0
17:30 - 18:00 7.0 7.1 6.9 62 0.0 6.5 214 10.1 0
18:00 - 18:30 6.7 6.9 6.4 64 0.0 4.7 205 7.6 0
18:30 - 19:00 6.8 6.8 6.6 63 0.0 4.0 232 7.6 0
19:00 - 19:30 6.8 6.9 6.6 62 0.0 4.0 221 8.3 0
19:30 - 20:00 6.8 6.9 6.6 62 0.0 5.0 240 8.3 0
20:00 - 20:30 7.0 7.0 6.8 59 0.0 5.4 202 9.0 0
20:30 - 21:00 6.6 7.0 6.2 60 0.0 5.8 169 9.0 0
21:00 - 21:30 6.0 6.2 5.9 64 0.0 4.7 163 7.6 0
21:30 - 22:00 5.9 6.1 5.7 62 0.0 3.2 21 5.4 0
22:00 - 22:30 6.0 6.4 5.8 61 0.0 3.6 126 6.8 0
22:30 - 23:00 6.5 6.8 6.2 54 0.0 3.2 150 10.4 0
23:00 - 23:30 6.8 7.0 6.4 53 0.0 2.9 159 7.2 0
23:30 - 00:00 6.4 6.7 5.9 57 0.0 3.6 97 6.8 0

Les dades en taronja només han passat un control de qualitat automàtic. Resta pendent la seva validació definitiva.